sensor_id;sensor_type;location;lat;lon;timestamp;P1;durP1;ratioP1;P2;durP2;ratioP2
6288;SDS011;3177;49.880;8.836;2023-12-22T00:00:15;1.90;;;1.80;;
6288;SDS011;3177;49.880;8.836;2023-12-22T00:02:43;1.53;;;1.53;;
6288;SDS011;3177;49.880;8.836;2023-12-22T00:05:10;3.60;;;1.70;;
6288;SDS011;3177;49.880;8.836;2023-12-22T00:07:37;4.30;;;1.73;;
6288;SDS011;3177;49.880;8.836;2023-12-22T00:10:04;1.70;;;1.60;;
6288;SDS011;3177;49.880;8.836;2023-12-22T00:12:32;1.50;;;1.50;;
6288;SDS011;3177;49.880;8.836;2023-12-22T00:14:59;1.73;;;1.70;;
6288;SDS011;3177;49.880;8.836;2023-12-22T00:17:26;1.80;;;1.70;;
6288;SDS011;3177;49.880;8.836;2023-12-22T00:19:53;1.80;;;1.27;;
6288;SDS011;3177;49.880;8.836;2023-12-22T00:22:23;1.83;;;1.73;;
6288;SDS011;3177;49.880;8.836;2023-12-22T00:24:51;1.60;;;1.60;;
6288;SDS011;3177;49.880;8.836;2023-12-22T00:27:18;1.70;;;1.60;;
6288;SDS011;3177;49.880;8.836;2023-12-22T00:29:46;1.70;;;1.70;;
6288;SDS011;3177;49.880;8.836;2023-12-22T00:32:13;1.57;;;1.53;;
6288;SDS011;3177;49.880;8.836;2023-12-22T00:34:40;1.60;;;1.60;;
6288;SDS011;3177;49.880;8.836;2023-12-22T00:37:07;1.40;;;1.40;;
6288;SDS011;3177;49.880;8.836;2023-12-22T00:39:34;2.80;;;1.80;;
6288;SDS011;3177;49.880;8.836;2023-12-22T00:42:01;1.70;;;1.70;;
6288;SDS011;3177;49.880;8.836;2023-12-22T00:44:29;1.50;;;1.50;;
6288;SDS011;3177;49.880;8.836;2023-12-22T00:46:57;1.43;;;1.43;;
6288;SDS011;3177;49.880;8.836;2023-12-22T00:49:24;1.57;;;1.57;;
6288;SDS011;3177;49.880;8.836;2023-12-22T00:51:51;1.30;;;1.30;;
6288;SDS011;3177;49.880;8.836;2023-12-22T00:54:18;1.40;;;1.40;;
6288;SDS011;3177;49.880;8.836;2023-12-22T00:56:45;1.53;;;1.47;;
6288;SDS011;3177;49.880;8.836;2023-12-22T00:59:12;2.80;;;1.50;;
6288;SDS011;3177;49.880;8.836;2023-12-22T01:01:39;1.60;;;1.50;;
6288;SDS011;3177;49.880;8.836;2023-12-22T01:04:08;1.80;;;1.50;;
6288;SDS011;3177;49.880;8.836;2023-12-22T01:06:36;1.53;;;1.50;;
6288;SDS011;3177;49.880;8.836;2023-12-22T01:09:04;1.40;;;1.40;;
6288;SDS011;3177;49.880;8.836;2023-12-22T01:11:31;1.53;;;1.53;;
6288;SDS011;3177;49.880;8.836;2023-12-22T01:13:57;1.77;;;1.70;;
6288;SDS011;3177;49.880;8.836;2023-12-22T01:16:25;1.50;;;1.47;;
6288;SDS011;3177;49.880;8.836;2023-12-22T01:18:52;1.70;;;1.60;;
6288;SDS011;3177;49.880;8.836;2023-12-22T01:21:20;1.50;;;1.50;;
6288;SDS011;3177;49.880;8.836;2023-12-22T01:23:47;1.50;;;1.50;;
6288;SDS011;3177;49.880;8.836;2023-12-22T01:26:14;1.50;;;1.50;;
6288;SDS011;3177;49.880;8.836;2023-12-22T01:28:41;1.67;;;1.57;;
6288;SDS011;3177;49.880;8.836;2023-12-22T01:31:08;1.47;;;1.47;;
6288;SDS011;3177;49.880;8.836;2023-12-22T01:33:35;2.77;;;1.70;;
6288;SDS011;3177;49.880;8.836;2023-12-22T01:36:02;1.83;;;1.73;;
6288;SDS011;3177;49.880;8.836;2023-12-22T01:38:30;1.70;;;1.60;;
6288;SDS011;3177;49.880;8.836;2023-12-22T01:40:57;1.63;;;1.60;;
6288;SDS011;3177;49.880;8.836;2023-12-22T01:43:24;1.97;;;1.87;;
6288;SDS011;3177;49.880;8.836;2023-12-22T01:45:52;1.80;;;1.70;;
6288;SDS011;3177;49.880;8.836;2023-12-22T01:48:21;1.70;;;1.60;;
6288;SDS011;3177;49.880;8.836;2023-12-22T01:50:49;1.97;;;1.60;;
6288;SDS011;3177;49.880;8.836;2023-12-22T01:53:16;1.80;;;1.70;;
6288;SDS011;3177;49.880;8.836;2023-12-22T01:55:45;1.93;;;1.70;;
6288;SDS011;3177;49.880;8.836;2023-12-22T01:58:12;1.40;;;1.40;;
6288;SDS011;3177;49.880;8.836;2023-12-22T02:00:39;1.53;;;1.53;;
6288;SDS011;3177;49.880;8.836;2023-12-22T02:03:06;2.10;;;1.70;;
6288;SDS011;3177;49.880;8.836;2023-12-22T02:05:34;1.90;;;1.80;;
6288;SDS011;3177;49.880;8.836;2023-12-22T02:08:01;1.80;;;1.70;;
6288;SDS011;3177;49.880;8.836;2023-12-22T02:10:28;1.60;;;1.60;;
6288;SDS011;3177;49.880;8.836;2023-12-22T02:12:57;1.60;;;1.60;;
6288;SDS011;3177;49.880;8.836;2023-12-22T02:15:24;2.43;;;1.63;;
6288;SDS011;3177;49.880;8.836;2023-12-22T02:17:52;1.80;;;1.70;;
6288;SDS011;3177;49.880;8.836;2023-12-22T02:20:21;1.40;;;1.40;;
6288;SDS011;3177;49.880;8.836;2023-12-22T02:22:52;1.50;;;1.50;;
6288;SDS011;3177;49.880;8.836;2023-12-22T02:25:19;1.67;;;1.63;;
6288;SDS011;3177;49.880;8.836;2023-12-22T02:27:47;1.50;;;1.50;;
6288;SDS011;3177;49.880;8.836;2023-12-22T02:30:16;1.50;;;1.50;;
6288;SDS011;3177;49.880;8.836;2023-12-22T02:32:47;1.20;;;1.20;;
6288;SDS011;3177;49.880;8.836;2023-12-22T02:35:16;1.40;;;1.40;;
6288;SDS011;3177;49.880;8.836;2023-12-22T02:37:45;2.70;;;1.40;;
6288;SDS011;3177;49.880;8.836;2023-12-22T02:40:13;1.40;;;1.40;;
6288;SDS011;3177;49.880;8.836;2023-12-22T02:42:41;1.63;;;1.60;;
6288;SDS011;3177;49.880;8.836;2023-12-22T02:45:12;2.97;;;1.50;;
6288;SDS011;3177;49.880;8.836;2023-12-22T02:47:39;1.70;;;1.60;;
6288;SDS011;3177;49.880;8.836;2023-12-22T02:50:07;2.53;;;1.80;;
6288;SDS011;3177;49.880;8.836;2023-12-22T02:52:34;2.90;;;1.60;;
6288;SDS011;3177;49.880;8.836;2023-12-22T02:55:01;1.40;;;1.40;;
6288;SDS011;3177;49.880;8.836;2023-12-22T02:57:29;1.40;;;1.40;;
6288;SDS011;3177;49.880;8.836;2023-12-22T02:59:57;1.50;;;1.50;;
6288;SDS011;3177;49.880;8.836;2023-12-22T03:02:24;1.53;;;1.53;;
6288;SDS011;3177;49.880;8.836;2023-12-22T03:04:51;1.43;;;1.43;;
6288;SDS011;3177;49.880;8.836;2023-12-22T03:07:18;1.50;;;1.50;;
6288;SDS011;3177;49.880;8.836;2023-12-22T03:09:45;1.50;;;1.50;;
6288;SDS011;3177;49.880;8.836;2023-12-22T03:12:12;1.40;;;1.40;;
6288;SDS011;3177;49.880;8.836;2023-12-22T03:14:40;1.40;;;1.40;;
6288;SDS011;3177;49.880;8.836;2023-12-22T03:17:07;1.40;;;1.40;;
6288;SDS011;3177;49.880;8.836;2023-12-22T03:19:35;1.67;;;1.57;;
6288;SDS011;3177;49.880;8.836;2023-12-22T03:22:02;1.50;;;1.50;;
6288;SDS011;3177;49.880;8.836;2023-12-22T03:24:29;1.60;;;1.60;;
6288;SDS011;3177;49.880;8.836;2023-12-22T03:26:56;1.50;;;1.50;;
6288;SDS011;3177;49.880;8.836;2023-12-22T03:29:23;1.83;;;1.73;;
6288;SDS011;3177;49.880;8.836;2023-12-22T03:31:52;1.50;;;1.50;;
6288;SDS011;3177;49.880;8.836;2023-12-22T03:34:19;1.60;;;1.60;;
6288;SDS011;3177;49.880;8.836;2023-12-22T03:36:46;1.60;;;1.60;;
6288;SDS011;3177;49.880;8.836;2023-12-22T03:39:13;1.70;;;1.60;;
6288;SDS011;3177;49.880;8.836;2023-12-22T03:41:41;1.70;;;1.70;;
6288;SDS011;3177;49.880;8.836;2023-12-22T03:44:08;1.70;;;1.60;;
6288;SDS011;3177;49.880;8.836;2023-12-22T03:46:35;2.30;;;1.90;;
6288;SDS011;3177;49.880;8.836;2023-12-22T03:49:03;1.60;;;1.60;;
6288;SDS011;3177;49.880;8.836;2023-12-22T03:51:30;1.70;;;1.60;;
6288;SDS011;3177;49.880;8.836;2023-12-22T03:53:57;3.93;;;1.70;;
6288;SDS011;3177;49.880;8.836;2023-12-22T03:56:24;1.93;;;1.93;;
6288;SDS011;3177;49.880;8.836;2023-12-22T03:58:51;2.17;;;1.97;;
6288;SDS011;3177;49.880;8.836;2023-12-22T04:01:17;1.37;;;1.37;;
6288;SDS011;3177;49.880;8.836;2023-12-22T04:03:44;2.17;;;2.00;;
6288;SDS011;3177;49.880;8.836;2023-12-22T04:06:12;1.70;;;1.60;;
6288;SDS011;3177;49.880;8.836;2023-12-22T04:08:39;1.90;;;1.80;;
6288;SDS011;3177;49.880;8.836;2023-12-22T04:11:06;3.40;;;1.80;;
6288;SDS011;3177;49.880;8.836;2023-12-22T04:13:33;2.87;;;2.17;;
6288;SDS011;3177;49.880;8.836;2023-12-22T04:16:00;2.10;;;1.90;;
6288;SDS011;3177;49.880;8.836;2023-12-22T04:18:29;2.10;;;1.80;;
6288;SDS011;3177;49.880;8.836;2023-12-22T04:20:56;3.37;;;1.90;;
6288;SDS011;3177;49.880;8.836;2023-12-22T04:23:25;1.90;;;1.80;;
6288;SDS011;3177;49.880;8.836;2023-12-22T04:25:51;2.40;;;1.73;;
6288;SDS011;3177;49.880;8.836;2023-12-22T04:28:18;5.47;;;2.00;;
6288;SDS011;3177;49.880;8.836;2023-12-22T04:30:45;2.17;;;2.07;;
6288;SDS011;3177;49.880;8.836;2023-12-22T04:33:12;2.60;;;1.87;;
6288;SDS011;3177;49.880;8.836;2023-12-22T04:35:39;2.57;;;1.80;;
6288;SDS011;3177;49.880;8.836;2023-12-22T04:38:06;2.07;;;1.97;;
6288;SDS011;3177;49.880;8.836;2023-12-22T04:40:34;4.30;;;2.27;;
6288;SDS011;3177;49.880;8.836;2023-12-22T04:43:01;3.03;;;1.93;;
6288;SDS011;3177;49.880;8.836;2023-12-22T04:45:28;2.83;;;2.60;;
6288;SDS011;3177;49.880;8.836;2023-12-22T04:47:55;1.63;;;1.63;;
6288;SDS011;3177;49.880;8.836;2023-12-22T04:50:22;3.40;;;2.07;;
6288;SDS011;3177;49.880;8.836;2023-12-22T04:52:49;4.87;;;1.90;;
6288;SDS011;3177;49.880;8.836;2023-12-22T04:55:16;6.27;;;2.43;;
6288;SDS011;3177;49.880;8.836;2023-12-22T04:57:45;2.40;;;2.20;;
6288;SDS011;3177;49.880;8.836;2023-12-22T05:00:12;3.77;;;1.77;;
6288;SDS011;3177;49.880;8.836;2023-12-22T05:02:40;1.80;;;1.77;;
6288;SDS011;3177;49.880;8.836;2023-12-22T05:05:07;3.67;;;1.83;;
6288;SDS011;3177;49.880;8.836;2023-12-22T05:07:34;2.93;;;1.70;;
6288;SDS011;3177;49.880;8.836;2023-12-22T05:10:01;1.80;;;1.70;;
6288;SDS011;3177;49.880;8.836;2023-12-22T05:12:29;1.70;;;1.60;;
6288;SDS011;3177;49.880;8.836;2023-12-22T05:14:57;1.97;;;1.80;;
6288;SDS011;3177;49.880;8.836;2023-12-22T05:17:24;3.83;;;1.80;;
6288;SDS011;3177;49.880;8.836;2023-12-22T05:19:51;1.80;;;1.80;;
6288;SDS011;3177;49.880;8.836;2023-12-22T05:22:18;2.37;;;2.17;;
6288;SDS011;3177;49.880;8.836;2023-12-22T05:24:45;2.13;;;1.93;;
6288;SDS011;3177;49.880;8.836;2023-12-22T05:27:12;2.07;;;1.87;;
6288;SDS011;3177;49.880;8.836;2023-12-22T05:29:40;2.20;;;2.10;;
6288;SDS011;3177;49.880;8.836;2023-12-22T05:32:08;1.60;;;1.50;;
6288;SDS011;3177;49.880;8.836;2023-12-22T05:34:35;2.10;;;1.90;;
6288;SDS011;3177;49.880;8.836;2023-12-22T05:37:02;3.07;;;1.87;;
6288;SDS011;3177;49.880;8.836;2023-12-22T05:39:29;1.83;;;1.73;;
6288;SDS011;3177;49.880;8.836;2023-12-22T05:41:57;2.47;;;2.20;;
6288;SDS011;3177;49.880;8.836;2023-12-22T05:44:24;3.10;;;1.93;;
6288;SDS011;3177;49.880;8.836;2023-12-22T05:46:54;2.60;;;1.80;;
6288;SDS011;3177;49.880;8.836;2023-12-22T05:49:22;2.50;;;1.80;;
6288;SDS011;3177;49.880;8.836;2023-12-22T05:51:50;1.77;;;1.73;;
6288;SDS011;3177;49.880;8.836;2023-12-22T05:54:17;1.60;;;1.60;;
6288;SDS011;3177;49.880;8.836;2023-12-22T05:56:45;1.87;;;1.70;;
6288;SDS011;3177;49.880;8.836;2023-12-22T05:59:12;2.20;;;1.93;;
6288;SDS011;3177;49.880;8.836;2023-12-22T06:01:38;2.53;;;1.60;;
6288;SDS011;3177;49.880;8.836;2023-12-22T06:04:05;4.20;;;2.00;;
6288;SDS011;3177;49.880;8.836;2023-12-22T06:06:33;1.87;;;1.77;;
6288;SDS011;3177;49.880;8.836;2023-12-22T06:09:00;5.93;;;2.00;;
6288;SDS011;3177;49.880;8.836;2023-12-22T06:11:27;2.00;;;1.90;;
6288;SDS011;3177;49.880;8.836;2023-12-22T06:13:55;1.97;;;1.77;;
6288;SDS011;3177;49.880;8.836;2023-12-22T06:16:22;3.10;;;2.43;;
6288;SDS011;3177;49.880;8.836;2023-12-22T06:18:49;2.43;;;2.13;;
6288;SDS011;3177;49.880;8.836;2023-12-22T06:21:16;1.90;;;1.80;;
6288;SDS011;3177;49.880;8.836;2023-12-22T06:23:45;5.17;;;2.30;;
6288;SDS011;3177;49.880;8.836;2023-12-22T06:26:12;1.97;;;1.87;;
6288;SDS011;3177;49.880;8.836;2023-12-22T06:28:39;1.70;;;1.63;;
6288;SDS011;3177;49.880;8.836;2023-12-22T06:31:06;1.63;;;1.63;;
6288;SDS011;3177;49.880;8.836;2023-12-22T06:33:33;2.07;;;1.87;;
6288;SDS011;3177;49.880;8.836;2023-12-22T06:36:00;2.27;;;1.80;;
6288;SDS011;3177;49.880;8.836;2023-12-22T06:38:27;1.43;;;1.43;;
6288;SDS011;3177;49.880;8.836;2023-12-22T06:40:56;2.00;;;1.90;;
6288;SDS011;3177;49.880;8.836;2023-12-22T06:43:23;2.07;;;1.70;;
6288;SDS011;3177;49.880;8.836;2023-12-22T06:45:50;2.97;;;1.80;;
6288;SDS011;3177;49.880;8.836;2023-12-22T06:48:20;3.43;;;2.10;;
6288;SDS011;3177;49.880;8.836;2023-12-22T06:50:47;2.20;;;2.00;;
6288;SDS011;3177;49.880;8.836;2023-12-22T06:53:14;5.33;;;2.30;;
6288;SDS011;3177;49.880;8.836;2023-12-22T06:55:41;2.60;;;2.17;;
6288;SDS011;3177;49.880;8.836;2023-12-22T06:58:09;2.23;;;1.73;;
6288;SDS011;3177;49.880;8.836;2023-12-22T07:00:36;5.40;;;2.57;;
6288;SDS011;3177;49.880;8.836;2023-12-22T07:03:04;2.27;;;2.07;;
6288;SDS011;3177;49.880;8.836;2023-12-22T07:05:32;3.10;;;1.80;;
6288;SDS011;3177;49.880;8.836;2023-12-22T07:08:01;2.73;;;1.87;;
6288;SDS011;3177;49.880;8.836;2023-12-22T07:10:29;2.90;;;2.07;;
6288;SDS011;3177;49.880;8.836;2023-12-22T07:12:56;2.23;;;1.90;;
6288;SDS011;3177;49.880;8.836;2023-12-22T07:15:24;2.13;;;1.93;;
6288;SDS011;3177;49.880;8.836;2023-12-22T07:17:51;3.30;;;1.93;;
6288;SDS011;3177;49.880;8.836;2023-12-22T07:20:18;1.90;;;1.80;;
6288;SDS011;3177;49.880;8.836;2023-12-22T07:22:45;2.00;;;1.90;;
6288;SDS011;3177;49.880;8.836;2023-12-22T07:25:14;9.13;;;2.37;;
6288;SDS011;3177;49.880;8.836;2023-12-22T07:27:41;3.70;;;2.07;;
6288;SDS011;3177;49.880;8.836;2023-12-22T07:30:08;2.73;;;2.53;;
6288;SDS011;3177;49.880;8.836;2023-12-22T07:32:42;2.00;;;1.90;;
6288;SDS011;3177;49.880;8.836;2023-12-22T07:35:10;2.80;;;2.30;;
6288;SDS011;3177;49.880;8.836;2023-12-22T07:37:37;5.20;;;2.27;;
6288;SDS011;3177;49.880;8.836;2023-12-22T07:40:04;4.73;;;2.40;;
6288;SDS011;3177;49.880;8.836;2023-12-22T07:42:32;3.73;;;2.30;;
6288;SDS011;3177;49.880;8.836;2023-12-22T07:44:59;2.53;;;2.33;;
6288;SDS011;3177;49.880;8.836;2023-12-22T07:47:28;6.50;;;2.53;;
6288;SDS011;3177;49.880;8.836;2023-12-22T07:49:56;2.30;;;2.10;;
6288;SDS011;3177;49.880;8.836;2023-12-22T07:52:23;4.17;;;1.90;;
6288;SDS011;3177;49.880;8.836;2023-12-22T07:54:50;3.17;;;2.73;;
6288;SDS011;3177;49.880;8.836;2023-12-22T07:57:17;2.93;;;2.37;;
6288;SDS011;3177;49.880;8.836;2023-12-22T07:59:44;3.60;;;2.03;;
6288;SDS011;3177;49.880;8.836;2023-12-22T08:02:11;5.70;;;2.17;;
6288;SDS011;3177;49.880;8.836;2023-12-22T08:04:38;6.30;;;2.73;;
6288;SDS011;3177;49.880;8.836;2023-12-22T08:07:07;5.17;;;2.40;;
6288;SDS011;3177;49.880;8.836;2023-12-22T08:09:34;2.37;;;2.10;;
6288;SDS011;3177;49.880;8.836;2023-12-22T08:12:01;4.33;;;3.03;;
6288;SDS011;3177;49.880;8.836;2023-12-22T08:14:28;4.47;;;2.23;;
6288;SDS011;3177;49.880;8.836;2023-12-22T08:16:55;5.90;;;2.20;;
6288;SDS011;3177;49.880;8.836;2023-12-22T08:19:22;2.77;;;2.17;;
6288;SDS011;3177;49.880;8.836;2023-12-22T08:21:51;5.47;;;2.00;;
6288;SDS011;3177;49.880;8.836;2023-12-22T08:24:20;2.67;;;2.00;;
6288;SDS011;3177;49.880;8.836;2023-12-22T08:26:47;5.40;;;2.20;;
6288;SDS011;3177;49.880;8.836;2023-12-22T08:29:14;2.40;;;2.20;;
6288;SDS011;3177;49.880;8.836;2023-12-22T08:31:41;4.70;;;2.20;;
6288;SDS011;3177;49.880;8.836;2023-12-22T08:34:09;3.83;;;2.30;;
6288;SDS011;3177;49.880;8.836;2023-12-22T08:36:36;4.73;;;2.20;;
6288;SDS011;3177;49.880;8.836;2023-12-22T08:39:03;2.60;;;2.40;;
6288;SDS011;3177;49.880;8.836;2023-12-22T08:41:32;1.83;;;1.70;;
6288;SDS011;3177;49.880;8.836;2023-12-22T08:44:01;4.37;;;2.40;;
6288;SDS011;3177;49.880;8.836;2023-12-22T08:46:28;4.20;;;2.43;;
6288;SDS011;3177;49.880;8.836;2023-12-22T08:48:56;7.17;;;2.50;;
6288;SDS011;3177;49.880;8.836;2023-12-22T08:51:24;4.27;;;2.20;;
6288;SDS011;3177;49.880;8.836;2023-12-22T08:53:51;3.00;;;1.93;;
6288;SDS011;3177;49.880;8.836;2023-12-22T08:56:19;4.73;;;2.47;;
6288;SDS011;3177;49.880;8.836;2023-12-22T08:58:48;2.30;;;2.00;;
6288;SDS011;3177;49.880;8.836;2023-12-22T09:01:16;4.90;;;2.47;;
6288;SDS011;3177;49.880;8.836;2023-12-22T09:03:43;3.70;;;1.70;;
6288;SDS011;3177;49.880;8.836;2023-12-22T09:06:13;4.87;;;2.00;;
6288;SDS011;3177;49.880;8.836;2023-12-22T09:08:40;6.00;;;2.20;;
6288;SDS011;3177;49.880;8.836;2023-12-22T09:11:07;4.17;;;1.80;;
6288;SDS011;3177;49.880;8.836;2023-12-22T09:13:34;1.93;;;1.80;;
6288;SDS011;3177;49.880;8.836;2023-12-22T09:16:03;1.90;;;1.80;;
6288;SDS011;3177;49.880;8.836;2023-12-22T09:18:30;4.80;;;2.17;;
6288;SDS011;3177;49.880;8.836;2023-12-22T09:20:57;6.33;;;2.20;;
6288;SDS011;3177;49.880;8.836;2023-12-22T09:23:24;2.30;;;2.07;;
6288;SDS011;3177;49.880;8.836;2023-12-22T09:25:51;2.90;;;2.43;;
6288;SDS011;3177;49.880;8.836;2023-12-22T09:28:18;6.77;;;3.30;;
6288;SDS011;3177;49.880;8.836;2023-12-22T09:30:45;4.97;;;2.50;;
6288;SDS011;3177;49.880;8.836;2023-12-22T09:33:14;2.87;;;2.10;;
6288;SDS011;3177;49.880;8.836;2023-12-22T09:35:41;4.13;;;2.23;;
6288;SDS011;3177;49.880;8.836;2023-12-22T09:38:08;2.70;;;2.00;;
6288;SDS011;3177;49.880;8.836;2023-12-22T09:40:36;3.73;;;2.17;;
6288;SDS011;3177;49.880;8.836;2023-12-22T09:43:04;3.50;;;2.20;;
6288;SDS011;3177;49.880;8.836;2023-12-22T09:45:32;2.70;;;2.20;;
6288;SDS011;3177;49.880;8.836;2023-12-22T09:48:00;4.27;;;2.43;;
6288;SDS011;3177;49.880;8.836;2023-12-22T09:50:30;3.97;;;2.90;;
6288;SDS011;3177;49.880;8.836;2023-12-22T09:52:57;2.93;;;2.67;;
6288;SDS011;3177;49.880;8.836;2023-12-22T09:55:25;3.63;;;2.93;;
6288;SDS011;3177;49.880;8.836;2023-12-22T09:57:52;2.87;;;2.33;;
6288;SDS011;3177;49.880;8.836;2023-12-22T10:00:19;3.23;;;1.80;;
6288;SDS011;3177;49.880;8.836;2023-12-22T10:02:48;4.53;;;2.33;;
6288;SDS011;3177;49.880;8.836;2023-12-22T10:05:15;6.70;;;2.90;;
6288;SDS011;3177;49.880;8.836;2023-12-22T10:07:45;6.40;;;2.87;;
6288;SDS011;3177;49.880;8.836;2023-12-22T10:10:12;6.90;;;2.60;;
6288;SDS011;3177;49.880;8.836;2023-12-22T10:12:39;7.20;;;2.60;;
6288;SDS011;3177;49.880;8.836;2023-12-22T10:15:08;5.67;;;2.60;;
6288;SDS011;3177;49.880;8.836;2023-12-22T10:17:35;8.03;;;2.97;;
6288;SDS011;3177;49.880;8.836;2023-12-22T10:20:03;7.53;;;3.70;;
6288;SDS011;3177;49.880;8.836;2023-12-22T10:22:30;4.60;;;2.67;;
6288;SDS011;3177;49.880;8.836;2023-12-22T10:24:58;12.03;;;4.53;;
6288;SDS011;3177;49.880;8.836;2023-12-22T10:27:25;6.57;;;3.07;;
6288;SDS011;3177;49.880;8.836;2023-12-22T10:29:53;7.53;;;3.37;;
6288;SDS011;3177;49.880;8.836;2023-12-22T10:32:21;9.87;;;4.00;;
6288;SDS011;3177;49.880;8.836;2023-12-22T10:34:48;9.33;;;2.73;;
6288;SDS011;3177;49.880;8.836;2023-12-22T10:37:15;4.13;;;2.90;;
6288;SDS011;3177;49.880;8.836;2023-12-22T10:39:42;2.13;;;2.03;;
6288;SDS011;3177;49.880;8.836;2023-12-22T10:42:14;9.17;;;3.13;;
6288;SDS011;3177;49.880;8.836;2023-12-22T10:44:41;8.20;;;3.20;;
6288;SDS011;3177;49.880;8.836;2023-12-22T10:47:08;10.03;;;3.33;;
6288;SDS011;3177;49.880;8.836;2023-12-22T10:49:36;6.60;;;3.17;;
6288;SDS011;3177;49.880;8.836;2023-12-22T10:52:03;10.93;;;3.63;;
6288;SDS011;3177;49.880;8.836;2023-12-22T10:54:31;8.37;;;3.60;;
6288;SDS011;3177;49.880;8.836;2023-12-22T10:56:58;2.80;;;2.00;;
6288;SDS011;3177;49.880;8.836;2023-12-22T10:59:27;10.57;;;3.30;;
6288;SDS011;3177;49.880;8.836;2023-12-22T11:01:55;6.40;;;3.10;;
6288;SDS011;3177;49.880;8.836;2023-12-22T11:04:24;11.07;;;3.37;;
6288;SDS011;3177;49.880;8.836;2023-12-22T11:06:52;7.80;;;3.07;;
6288;SDS011;3177;49.880;8.836;2023-12-22T11:09:23;5.23;;;3.30;;
6288;SDS011;3177;49.880;8.836;2023-12-22T11:11:51;14.60;;;3.50;;
6288;SDS011;3177;49.880;8.836;2023-12-22T11:14:18;5.57;;;3.20;;
6288;SDS011;3177;49.880;8.836;2023-12-22T11:16:47;10.57;;;3.37;;
6288;SDS011;3177;49.880;8.836;2023-12-22T11:19:15;12.10;;;3.43;;
6288;SDS011;3177;49.880;8.836;2023-12-22T11:21:42;9.83;;;3.27;;
6288;SDS011;3177;49.880;8.836;2023-12-22T11:24:09;14.97;;;3.13;;
6288;SDS011;3177;49.880;8.836;2023-12-22T11:26:37;9.63;;;3.17;;
6288;SDS011;3177;49.880;8.836;2023-12-22T11:29:05;12.10;;;3.47;;
6288;SDS011;3177;49.880;8.836;2023-12-22T11:31:33;7.67;;;3.00;;
6288;SDS011;3177;49.880;8.836;2023-12-22T11:34:02;8.50;;;3.63;;
6288;SDS011;3177;49.880;8.836;2023-12-22T11:36:29;8.93;;;3.10;;
6288;SDS011;3177;49.880;8.836;2023-12-22T11:38:56;10.83;;;3.40;;
6288;SDS011;3177;49.880;8.836;2023-12-22T11:41:24;5.80;;;3.17;;
6288;SDS011;3177;49.880;8.836;2023-12-22T11:43:52;5.33;;;2.50;;
6288;SDS011;3177;49.880;8.836;2023-12-22T11:46:19;11.40;;;3.03;;
6288;SDS011;3177;49.880;8.836;2023-12-22T11:48:48;5.10;;;3.10;;
6288;SDS011;3177;49.880;8.836;2023-12-22T11:51:17;10.73;;;4.03;;
6288;SDS011;3177;49.880;8.836;2023-12-22T11:53:45;10.87;;;4.10;;
6288;SDS011;3177;49.880;8.836;2023-12-22T11:56:12;7.97;;;4.03;;
6288;SDS011;3177;49.880;8.836;2023-12-22T11:58:39;7.10;;;3.30;;
6288;SDS011;3177;49.880;8.836;2023-12-22T12:01:08;9.20;;;3.30;;
6288;SDS011;3177;49.880;8.836;2023-12-22T12:03:36;5.13;;;2.47;;
6288;SDS011;3177;49.880;8.836;2023-12-22T12:06:09;9.63;;;3.30;;
6288;SDS011;3177;49.880;8.836;2023-12-22T12:08:38;12.23;;;3.07;;
6288;SDS011;3177;49.880;8.836;2023-12-22T12:11:05;8.53;;;2.63;;
6288;SDS011;3177;49.880;8.836;2023-12-22T12:13:32;7.33;;;2.60;;
6288;SDS011;3177;49.880;8.836;2023-12-22T12:16:00;2.13;;;2.03;;
6288;SDS011;3177;49.880;8.836;2023-12-22T12:18:27;1.50;;;1.50;;
6288;SDS011;3177;49.880;8.836;2023-12-22T12:20:56;2.30;;;2.10;;
6288;SDS011;3177;49.880;8.836;2023-12-22T12:23:23;4.40;;;2.13;;
6288;SDS011;3177;49.880;8.836;2023-12-22T12:25:52;4.47;;;1.97;;
6288;SDS011;3177;49.880;8.836;2023-12-22T12:28:24;3.80;;;2.23;;
6288;SDS011;3177;49.880;8.836;2023-12-22T12:30:56;4.07;;;1.93;;
6288;SDS011;3177;49.880;8.836;2023-12-22T12:33:25;2.57;;;2.10;;
6288;SDS011;3177;49.880;8.836;2023-12-22T12:35:52;3.27;;;2.00;;
6288;SDS011;3177;49.880;8.836;2023-12-22T12:38:19;6.67;;;2.53;;
6288;SDS011;3177;49.880;8.836;2023-12-22T12:40:48;6.97;;;2.37;;
6288;SDS011;3177;49.880;8.836;2023-12-22T12:43:18;5.80;;;2.13;;
6288;SDS011;3177;49.880;8.836;2023-12-22T12:45:46;5.90;;;2.47;;
6288;SDS011;3177;49.880;8.836;2023-12-22T12:48:13;6.97;;;2.90;;
6288;SDS011;3177;49.880;8.836;2023-12-22T12:50:44;5.50;;;2.80;;
6288;SDS011;3177;49.880;8.836;2023-12-22T12:53:11;10.27;;;2.47;;
6288;SDS011;3177;49.880;8.836;2023-12-22T12:55:38;3.33;;;2.50;;
6288;SDS011;3177;49.880;8.836;2023-12-22T12:58:05;4.13;;;2.50;;
6288;SDS011;3177;49.880;8.836;2023-12-22T13:00:34;2.03;;;1.87;;
6288;SDS011;3177;49.880;8.836;2023-12-22T13:03:01;6.50;;;2.73;;
6288;SDS011;3177;49.880;8.836;2023-12-22T13:05:29;11.93;;;3.63;;
6288;SDS011;3177;49.880;8.836;2023-12-22T13:08:05;6.00;;;2.53;;
6288;SDS011;3177;49.880;8.836;2023-12-22T13:10:33;9.60;;;2.93;;
6288;SDS011;3177;49.880;8.836;2023-12-22T13:13:00;4.47;;;2.53;;
6288;SDS011;3177;49.880;8.836;2023-12-22T13:15:28;7.80;;;2.87;;
6288;SDS011;3177;49.880;8.836;2023-12-22T13:17:56;7.67;;;2.90;;
6288;SDS011;3177;49.880;8.836;2023-12-22T13:20:23;5.97;;;2.50;;
6288;SDS011;3177;49.880;8.836;2023-12-22T13:22:51;3.57;;;2.20;;
6288;SDS011;3177;49.880;8.836;2023-12-22T13:25:18;5.43;;;2.10;;
6288;SDS011;3177;49.880;8.836;2023-12-22T13:27:47;2.80;;;2.37;;
6288;SDS011;3177;49.880;8.836;2023-12-22T13:30:14;4.53;;;2.10;;
6288;SDS011;3177;49.880;8.836;2023-12-22T13:32:41;4.87;;;2.67;;
6288;SDS011;3177;49.880;8.836;2023-12-22T13:35:10;3.93;;;2.20;;
6288;SDS011;3177;49.880;8.836;2023-12-22T13:37:40;8.23;;;2.00;;
6288;SDS011;3177;49.880;8.836;2023-12-22T13:40:09;4.13;;;1.80;;
6288;SDS011;3177;49.880;8.836;2023-12-22T13:42:36;2.20;;;1.70;;
6288;SDS011;3177;49.880;8.836;2023-12-22T13:45:04;1.90;;;1.80;;
6288;SDS011;3177;49.880;8.836;2023-12-22T13:47:31;2.53;;;1.63;;
6288;SDS011;3177;49.880;8.836;2023-12-22T13:49:58;3.23;;;2.40;;
6288;SDS011;3177;49.880;8.836;2023-12-22T13:52:27;7.43;;;2.80;;
6288;SDS011;3177;49.880;8.836;2023-12-22T13:54:56;2.23;;;2.03;;
6288;SDS011;3177;49.880;8.836;2023-12-22T13:57:26;2.73;;;1.97;;
6288;SDS011;3177;49.880;8.836;2023-12-22T13:59:53;2.00;;;1.80;;
6288;SDS011;3177;49.880;8.836;2023-12-22T14:02:20;1.30;;;1.30;;
6288;SDS011;3177;49.880;8.836;2023-12-22T14:04:48;1.40;;;1.40;;
6288;SDS011;3177;49.880;8.836;2023-12-22T14:07:15;1.40;;;1.40;;
6288;SDS011;3177;49.880;8.836;2023-12-22T14:09:43;1.60;;;1.50;;
6288;SDS011;3177;49.880;8.836;2023-12-22T14:12:11;1.43;;;1.43;;
6288;SDS011;3177;49.880;8.836;2023-12-22T14:14:38;1.63;;;1.40;;
6288;SDS011;3177;49.880;8.836;2023-12-22T14:17:05;1.57;;;1.50;;
6288;SDS011;3177;49.880;8.836;2023-12-22T14:19:32;1.80;;;1.53;;
6288;SDS011;3177;49.880;8.836;2023-12-22T14:21:59;1.80;;;1.70;;
6288;SDS011;3177;49.880;8.836;2023-12-22T14:24:26;1.50;;;1.40;;
6288;SDS011;3177;49.880;8.836;2023-12-22T14:26:55;1.40;;;1.40;;
6288;SDS011;3177;49.880;8.836;2023-12-22T14:29:22;2.20;;;1.33;;
6288;SDS011;3177;49.880;8.836;2023-12-22T14:31:49;1.93;;;1.27;;
6288;SDS011;3177;49.880;8.836;2023-12-22T14:34:16;1.50;;;1.40;;
6288;SDS011;3177;49.880;8.836;2023-12-22T14:36:43;1.30;;;1.30;;
6288;SDS011;3177;49.880;8.836;2023-12-22T14:39:10;1.77;;;1.67;;
6288;SDS011;3177;49.880;8.836;2023-12-22T14:41:38;1.30;;;1.30;;
6288;SDS011;3177;49.880;8.836;2023-12-22T14:44:06;1.30;;;1.30;;
6288;SDS011;3177;49.880;8.836;2023-12-22T14:46:36;1.73;;;1.40;;
6288;SDS011;3177;49.880;8.836;2023-12-22T14:49:04;2.07;;;1.77;;
6288;SDS011;3177;49.880;8.836;2023-12-22T14:51:34;2.10;;;1.40;;
6288;SDS011;3177;49.880;8.836;2023-12-22T14:54:02;1.43;;;1.40;;
6288;SDS011;3177;49.880;8.836;2023-12-22T14:56:29;4.23;;;2.20;;
6288;SDS011;3177;49.880;8.836;2023-12-22T14:58:56;2.17;;;2.07;;
6288;SDS011;3177;49.880;8.836;2023-12-22T15:01:24;1.37;;;1.30;;
6288;SDS011;3177;49.880;8.836;2023-12-22T15:03:52;1.60;;;1.57;;
6288;SDS011;3177;49.880;8.836;2023-12-22T15:06:19;3.23;;;2.30;;
6288;SDS011;3177;49.880;8.836;2023-12-22T15:08:46;2.07;;;1.70;;
6288;SDS011;3177;49.880;8.836;2023-12-22T15:11:13;1.60;;;1.50;;
6288;SDS011;3177;49.880;8.836;2023-12-22T15:13:40;1.70;;;1.60;;
6288;SDS011;3177;49.880;8.836;2023-12-22T15:16:08;3.23;;;2.10;;